createdAt,value
2018-06-08T00:01:28.661Z,94130.09
2018-06-08T00:03:57.464Z,94128.20
2018-06-08T00:06:26.240Z,94129.19
2018-06-08T00:08:55.628Z,94132.09
2018-06-08T00:11:24.380Z,94128.73
2018-06-08T00:13:53.145Z,94129.00
2018-06-08T00:16:21.890Z,94133.98
2018-06-08T00:18:50.645Z,94129.00
2018-06-08T00:21:19.404Z,94123.29
2018-06-08T00:23:48.180Z,94120.67
2018-06-08T00:26:17.121Z,94120.11
2018-06-08T00:28:45.872Z,94118.59
2018-06-08T00:31:14.729Z,94120.12
2018-06-08T00:33:43.515Z,94120.45
2018-06-08T00:36:12.257Z,94116.41
2018-06-08T00:38:41.054Z,94119.02
2018-06-08T00:41:09.836Z,94117.16
2018-06-08T00:43:38.767Z,94118.24
2018-06-08T00:46:07.668Z,94118.57
2018-06-08T00:48:36.438Z,94112.42
2018-06-08T00:51:05.194Z,94106.42
2018-06-08T00:53:34.026Z,94106.27
2018-06-08T00:56:02.799Z,94109.34
2018-06-08T00:58:31.549Z,94110.95
2018-06-08T01:01:00.352Z,94113.17
2018-06-08T01:03:29.111Z,94115.51
2018-06-08T01:05:57.904Z,94113.52
2018-06-08T01:08:26.677Z,94113.17
2018-06-08T01:10:55.431Z,94122.59
2018-06-08T01:13:24.219Z,94124.83
2018-06-08T01:15:53.055Z,94129.27
2018-06-08T01:18:21.838Z,94125.44
2018-06-08T01:20:50.645Z,94114.56
2018-06-08T01:23:19.391Z,94109.65
2018-06-08T01:25:48.178Z,94107.94
2018-06-08T01:28:16.928Z,94109.84
2018-06-08T01:30:45.707Z,94109.58
2018-06-08T01:33:14.454Z,94107.65
2018-06-08T01:35:43.195Z,94105.72
2018-06-08T01:38:12.052Z,94100.55
2018-06-08T01:40:40.787Z,94104.07
2018-06-08T01:43:09.527Z,94104.33
2018-06-08T01:45:38.301Z,94103.95
2018-06-08T01:48:07.063Z,94115.70
2018-06-08T01:50:35.835Z,94110.19
2018-06-08T01:53:04.619Z,94114.53
2018-06-08T01:55:33.381Z,94115.70
2018-06-08T01:58:02.200Z,94108.47
2018-06-08T02:00:31.057Z,94101.37
2018-06-08T02:02:59.801Z,94103.34
2018-06-08T02:05:28.553Z,94096.88
2018-06-08T02:07:57.345Z,94103.75
2018-06-08T02:10:26.096Z,94106.45
2018-06-08T02:12:54.867Z,94110.44
2018-06-08T02:15:23.619Z,94099.76
2018-06-08T02:17:52.387Z,94102.16
2018-06-08T02:20:21.162Z,94100.98
2018-06-08T02:22:49.963Z,94111.67
2018-06-08T02:25:18.743Z,94105.48
2018-06-08T02:27:47.514Z,94110.70
2018-06-08T02:30:16.298Z,94114.88
2018-06-08T02:32:45.077Z,94122.28
2018-06-08T02:35:13.860Z,94115.31
2018-06-08T02:37:42.602Z,94115.83
2018-06-08T02:40:11.372Z,94121.98
2018-06-08T02:42:40.143Z,94117.61
2018-06-08T02:45:09.068Z,94120.88
2018-06-08T02:47:37.814Z,94129.41
2018-06-08T02:50:06.592Z,94134.09
2018-06-08T02:52:35.360Z,94127.19
2018-06-08T02:55:04.194Z,94127.72
2018-06-08T02:57:32.952Z,94134.64
2018-06-08T03:00:01.709Z,94135.94
2018-06-08T03:02:30.463Z,94136.55
2018-06-08T03:04:59.221Z,94138.16
2018-06-08T03:07:28.089Z,94133.16
2018-06-08T03:09:56.843Z,94129.36
2018-06-08T03:12:25.651Z,94128.12
2018-06-08T03:14:54.397Z,94131.13
2018-06-08T03:17:23.161Z,94131.31
2018-06-08T03:19:51.886Z,94131.81
2018-06-08T03:22:20.632Z,94128.84
2018-06-08T03:24:50.074Z,94133.41
2018-06-08T03:27:18.840Z,94137.88
2018-06-08T03:29:47.712Z,94131.14
2018-06-08T03:32:16.471Z,94139.14
2018-06-08T03:34:45.235Z,94133.81
2018-06-08T03:37:14.009Z,94138.09
2018-06-08T03:39:42.804Z,94144.48
2018-06-08T03:42:11.587Z,94139.20
2018-06-08T03:44:40.336Z,94136.37
2018-06-08T03:47:09.087Z,94130.49
2018-06-08T03:49:37.830Z,94122.22
2018-06-08T03:52:06.759Z,94123.77
2018-06-08T03:54:35.516Z,94121.20
2018-06-08T03:57:05.278Z,94110.56
2018-06-08T03:59:34.032Z,94099.88
2018-06-08T04:02:02.812Z,94096.75
2018-06-08T04:04:31.566Z,94093.05
2018-06-08T04:07:00.539Z,94090.63
2018-06-08T04:09:29.346Z,94096.92
2018-06-08T04:11:58.155Z,94091.20
2018-06-08T04:14:26.917Z,94089.20
2018-06-08T04:16:55.659Z,94090.39
2018-06-08T04:19:24.402Z,94087.58
2018-06-08T04:21:53.138Z,94083.53
2018-06-08T04:24:21.919Z,94087.82
2018-06-08T04:26:50.680Z,94088.22
2018-06-08T04:29:19.459Z,94094.11
2018-06-08T04:31:48.217Z,94093.30
2018-06-08T04:34:16.985Z,94099.48
2018-06-08T04:36:45.841Z,94099.94
2018-06-08T04:39:14.590Z,94097.96
2018-06-08T04:41:43.344Z,94104.00
2018-06-08T04:44:12.092Z,94107.63
2018-06-08T04:46:40.868Z,94111.57
2018-06-08T04:49:09.683Z,94115.11
2018-06-08T04:51:38.481Z,94114.93
2018-06-08T04:54:07.255Z,94112.73
2018-06-08T04:56:35.999Z,94124.25
2018-06-08T04:59:04.879Z,94119.48
2018-06-08T05:01:33.637Z,94123.99
2018-06-08T05:04:02.426Z,94120.94
2018-06-08T05:06:31.205Z,94129.61
2018-06-08T05:08:59.982Z,94132.73
2018-06-08T05:11:28.751Z,94134.11
2018-06-08T05:13:57.484Z,94142.52
2018-06-08T05:16:26.322Z,94134.55
2018-06-08T05:18:55.075Z,94132.33
2018-06-08T05:21:23.863Z,94132.61
2018-06-08T05:23:52.621Z,94133.80
2018-06-08T05:26:21.393Z,94130.31
2018-06-08T05:28:50.204Z,94140.48
2018-06-08T05:31:18.964Z,94138.74
2018-06-08T05:33:47.766Z,94140.22
2018-06-08T05:36:16.570Z,94144.87
2018-06-08T05:38:45.320Z,94146.08
2018-06-08T05:41:14.116Z,94145.35
2018-06-08T05:43:43.000Z,94150.66
2018-06-08T05:46:11.794Z,94154.65
2018-06-08T05:48:40.611Z,94152.35
2018-06-08T05:51:09.372Z,94147.87
2018-06-08T05:53:38.166Z,94151.33
2018-06-08T05:56:06.901Z,94149.21
2018-06-08T05:58:35.642Z,94150.17
2018-06-08T06:01:04.548Z,94152.16
2018-06-08T06:03:33.327Z,94150.17
2018-06-08T06:06:02.171Z,94152.55
2018-06-08T06:08:30.963Z,94148.03
2018-06-08T06:10:59.779Z,94154.86
2018-06-08T06:13:28.541Z,94160.27
2018-06-08T06:15:57.302Z,94160.09
2018-06-08T06:18:26.061Z,94150.52
2018-06-08T06:20:54.849Z,94158.98
2018-06-08T06:23:23.639Z,94162.45
2018-06-08T06:25:52.397Z,94146.86
2018-06-08T06:28:21.171Z,94145.30
2018-06-08T06:30:49.983Z,94154.37
2018-06-08T06:33:18.722Z,94142.31
2018-06-08T06:35:47.484Z,94151.55
2018-06-08T06:38:16.265Z,94151.34
2018-06-08T06:40:45.024Z,94152.42
2018-06-08T06:43:13.801Z,94147.92
2018-06-08T06:45:42.598Z,94146.13
2018-06-08T06:48:11.373Z,94142.42
2018-06-08T06:50:40.197Z,94146.34
2018-06-08T06:53:08.998Z,94149.25
2018-06-08T06:55:37.794Z,94152.84
2018-06-08T06:58:06.570Z,94146.95
2018-06-08T07:00:35.319Z,94147.45
2018-06-08T07:03:04.061Z,94145.55
2018-06-08T07:05:32.846Z,94143.30
2018-06-08T07:08:01.621Z,94136.56
2018-06-08T07:10:30.411Z,94141.40
2018-06-08T07:12:59.195Z,94127.69
2018-06-08T07:15:27.990Z,94136.45
2018-06-08T07:17:56.756Z,94135.14
2018-06-08T07:20:25.536Z,94138.53
2018-06-08T07:22:54.291Z,94135.95
2018-06-08T07:25:23.045Z,94130.20
2018-06-08T07:27:51.863Z,94128.64
2018-06-08T07:30:20.839Z,94136.83
2018-06-08T07:32:49.615Z,94135.35
2018-06-08T07:35:18.428Z,94140.29
2018-06-08T07:37:47.213Z,94128.55
2018-06-08T07:40:16.061Z,94137.05
2018-06-08T07:42:44.834Z,94130.28
2018-06-08T07:45:13.599Z,94131.50
2018-06-08T07:47:42.387Z,94127.75
2018-06-08T07:50:11.158Z,94125.42
2018-06-08T07:52:39.946Z,94116.69
2018-06-08T07:55:08.705Z,94124.25
2018-06-08T07:57:37.524Z,94123.87
2018-06-08T08:00:06.285Z,94126.83
2018-06-08T08:02:35.063Z,94125.40
2018-06-08T08:05:03.977Z,94120.89
2018-06-08T08:07:32.743Z,94121.66
2018-06-08T08:10:01.537Z,94121.69
2018-06-08T08:12:30.330Z,94118.27
2018-06-08T08:14:59.138Z,94116.13
2018-06-08T08:17:27.898Z,94109.02
2018-06-08T08:19:56.729Z,94103.45
2018-06-08T08:22:25.510Z,94110.39
2018-06-08T08:24:54.291Z,94095.80
2018-06-08T08:27:23.062Z,94099.75
2018-06-08T08:29:51.848Z,94100.61
2018-06-08T08:32:20.619Z,94099.42
2018-06-08T08:34:49.371Z,94097.78
2018-06-08T08:37:18.157Z,94089.50
2018-06-08T08:39:46.932Z,94089.58
2018-06-08T08:42:15.783Z,94095.23
2018-06-08T08:44:44.546Z,94085.90
2018-06-08T08:47:13.381Z,94080.05
2018-06-08T08:49:42.180Z,94084.80
2018-06-08T08:52:11.018Z,94087.71
2018-06-08T08:54:39.820Z,94085.87
2018-06-08T08:57:08.671Z,94080.04
2018-06-08T08:59:37.408Z,94076.80
2018-06-08T09:02:06.306Z,94074.11
2018-06-08T09:04:35.102Z,94067.50
2018-06-08T09:07:03.914Z,94071.13
2018-06-08T09:09:32.682Z,94067.80
2018-06-08T09:12:01.463Z,94065.78
2018-06-08T09:14:30.215Z,94063.27
2018-06-08T09:16:58.991Z,94056.51
2018-06-08T09:19:27.751Z,94060.20
2018-06-08T09:21:56.567Z,94056.12
2018-06-08T09:24:25.341Z,94059.23
2018-06-08T09:26:54.193Z,94054.36
2018-06-08T09:29:22.963Z,94059.73
2018-06-08T09:31:51.755Z,94052.47
2018-06-08T09:34:20.536Z,94051.59
2018-06-08T09:36:49.318Z,94046.64
2018-06-08T09:39:18.055Z,94050.53
2018-06-08T09:41:46.838Z,94042.16
2018-06-08T09:44:15.590Z,94041.63
2018-06-08T09:46:44.351Z,94041.45
2018-06-08T09:49:13.208Z,94038.09
2018-06-08T09:51:41.970Z,94038.09
2018-06-08T09:54:10.818Z,94036.16
2018-06-08T09:56:39.623Z,94036.36
2018-06-08T09:59:08.418Z,94044.00
2018-06-08T10:01:37.256Z,94030.18
2018-06-08T10:04:06.189Z,94036.55
2018-06-08T10:06:34.975Z,94036.43
2018-06-08T10:09:03.920Z,94029.92
2018-06-08T10:11:32.747Z,94019.72
2018-06-08T10:14:01.679Z,94020.76
2018-06-08T10:16:30.445Z,94017.53
2018-06-08T10:18:59.212Z,94019.30
2018-06-08T10:21:27.996Z,94016.59
2018-06-08T10:23:56.779Z,94023.38
2018-06-08T10:26:25.549Z,94006.84
2018-06-08T10:28:54.306Z,94012.06
2018-06-08T10:31:23.104Z,94004.00
2018-06-08T10:33:51.950Z,94006.91
2018-06-08T10:36:20.722Z,94002.36
2018-06-08T10:38:49.483Z,94003.20
2018-06-08T10:41:18.742Z,94000.12
2018-06-08T10:43:47.545Z,93999.81
2018-06-08T10:46:16.321Z,93993.69
2018-06-08T10:48:45.104Z,93994.00
2018-06-08T10:51:13.888Z,93992.19
2018-06-08T10:53:42.679Z,93988.83
2018-06-08T10:56:11.487Z,93983.50
2018-06-08T10:58:40.252Z,93982.69
2018-06-08T11:01:09.050Z,93973.39
2018-06-08T11:03:37.826Z,93977.52
2018-06-08T11:06:06.612Z,93975.75
2018-06-08T11:08:35.401Z,93972.56
2018-06-08T11:11:04.215Z,93968.98
2018-06-08T11:13:33.006Z,93975.95
2018-06-08T11:16:01.763Z,93967.75
2018-06-08T11:18:30.570Z,93965.70
2018-06-08T11:20:59.331Z,93963.76
2018-06-08T11:23:28.096Z,93959.89
2018-06-08T11:25:56.862Z,93958.34
2018-06-08T11:28:25.652Z,93953.45
2018-06-08T11:30:54.438Z,93954.23
2018-06-08T11:33:23.216Z,93952.27
2018-06-08T11:35:52.004Z,93945.20
2018-06-08T11:38:20.861Z,93947.01
2018-06-08T11:40:49.693Z,93941.60
2018-06-08T11:43:18.469Z,93946.75
2018-06-08T11:45:47.280Z,93935.70
2018-06-08T11:48:16.071Z,93933.65
2018-06-08T11:50:44.832Z,93926.27
2018-06-08T11:53:13.640Z,93927.68
2018-06-08T11:55:42.425Z,93918.90
2018-06-08T11:58:11.222Z,93911.69
2018-06-08T12:00:40.041Z,93915.17
2018-06-08T12:03:08.911Z,93912.41
2018-06-08T12:05:37.670Z,93912.95
2018-06-08T12:08:06.462Z,93909.80
2018-06-08T12:10:35.224Z,93906.47
2018-06-08T12:13:03.983Z,93903.37
2018-06-08T12:15:32.750Z,93902.17
2018-06-08T12:18:01.518Z,93892.77
2018-06-08T12:20:30.282Z,93897.28
2018-06-08T12:22:59.044Z,93889.47
2018-06-08T12:25:27.898Z,93881.98
2018-06-08T12:27:56.670Z,93878.67
2018-06-08T12:30:25.441Z,93870.66
2018-06-08T12:32:54.235Z,93865.59
2018-06-08T12:35:23.019Z,93872.47
2018-06-08T12:37:51.817Z,93873.95
2018-06-08T12:40:20.622Z,93866.19
2018-06-08T12:42:49.415Z,93868.06
2018-06-08T12:45:18.202Z,93865.55
2018-06-08T12:47:47.024Z,93857.34
2018-06-08T12:50:15.821Z,93850.41
2018-06-08T12:52:44.620Z,93856.33
2018-06-08T12:55:13.388Z,93849.80
2018-06-08T12:57:42.158Z,93853.30
2018-06-08T13:00:10.952Z,93842.00
2018-06-08T13:02:39.691Z,93848.05
2018-06-08T13:05:08.444Z,93843.87
2018-06-08T13:07:37.223Z,93843.41
2018-06-08T13:10:06.079Z,93839.90
2018-06-08T13:12:34.835Z,93838.77
2018-06-08T13:15:03.663Z,93825.17
2018-06-08T13:17:32.430Z,93826.17
2018-06-08T13:20:01.207Z,93826.80
2018-06-08T13:22:29.961Z,93827.14
2018-06-08T13:24:58.862Z,93822.35
2018-06-08T13:27:27.646Z,93817.50
2018-06-08T13:29:56.406Z,93826.19
2018-06-08T13:32:25.253Z,93813.11
2018-06-08T13:34:54.003Z,93821.11
2018-06-08T13:37:22.789Z,93819.13
2018-06-08T13:39:51.570Z,93818.80
2018-06-08T13:42:20.356Z,93812.33
2018-06-08T13:44:49.116Z,93807.09
2018-06-08T13:47:17.870Z,93800.84
2018-06-08T13:49:46.652Z,93803.10
2018-06-08T13:52:15.417Z,93803.28
2018-06-08T13:54:44.239Z,93797.14
2018-06-08T13:57:13.024Z,93794.52
2018-06-08T13:59:41.885Z,93789.06
2018-06-08T14:02:10.626Z,93786.55
2018-06-08T14:04:39.453Z,93788.28
2018-06-08T14:07:08.229Z,93781.22
2018-06-08T14:09:37.405Z,93778.53
2018-06-08T14:12:06.189Z,93759.50
2018-06-08T14:14:34.948Z,93766.24
2018-06-08T14:17:03.888Z,93759.75
2018-06-08T14:19:32.675Z,93750.34
2018-06-08T14:22:01.661Z,93747.46
2018-06-08T14:24:30.477Z,93744.80
2018-06-08T14:26:59.324Z,93744.44
2018-06-08T14:29:28.103Z,93745.25
2018-06-08T14:31:56.879Z,93746.73
2018-06-08T14:34:25.659Z,93729.30
2018-06-08T14:36:54.440Z,93734.30
2018-06-08T14:39:23.364Z,93734.95
2018-06-08T14:41:52.117Z,93731.72
2018-06-08T14:44:20.893Z,93733.36
2018-06-08T14:46:49.716Z,93729.83
2018-06-08T14:49:18.492Z,93729.50
2018-06-08T14:51:47.236Z,93732.09
2018-06-08T14:54:16.013Z,93722.69
2018-06-08T14:56:44.817Z,93728.48
2018-06-08T14:59:13.629Z,93724.96
2018-06-08T15:01:42.481Z,93721.59
2018-06-08T15:04:11.287Z,93713.67
2018-06-08T15:06:40.059Z,93714.81
2018-06-08T15:09:08.844Z,93708.21
2018-06-08T15:11:37.644Z,93708.83
2018-06-08T15:14:07.479Z,93706.55
2018-06-08T15:16:36.235Z,93708.06
2018-06-08T15:19:05.060Z,93709.98
2018-06-08T15:21:33.830Z,93706.27
2018-06-08T15:24:02.630Z,93712.08
2018-06-08T15:26:31.427Z,93716.92
2018-06-08T15:29:00.236Z,93713.87
2018-06-08T15:31:28.987Z,93715.95
2018-06-08T15:33:57.790Z,93711.92
2018-06-08T15:36:26.589Z,93718.55
2018-06-08T15:38:55.362Z,93717.55
2018-06-08T15:41:24.127Z,93712.87
2018-06-08T15:43:52.908Z,93719.98
2018-06-08T15:46:21.745Z,93719.52
2018-06-08T15:48:50.495Z,93721.41
2018-06-08T15:51:19.271Z,93719.77
2018-06-08T15:53:48.076Z,93722.30
2018-06-08T15:56:16.878Z,93729.94
2018-06-08T15:58:45.681Z,93732.48
2018-06-08T16:01:14.472Z,93735.69
2018-06-08T16:03:43.260Z,93737.81
2018-06-08T16:06:12.048Z,93747.15
2018-06-08T16:08:41.021Z,93749.17
2018-06-08T16:11:10.348Z,93746.36
2018-06-08T16:13:39.133Z,93753.76
2018-06-08T16:16:07.956Z,93747.67
2018-06-08T16:18:36.735Z,93748.41
2018-06-08T16:21:05.568Z,93746.04
2018-06-08T16:23:34.340Z,93750.13
2018-06-08T16:26:03.132Z,93744.73
2018-06-08T16:28:31.889Z,93740.56
2018-06-08T16:31:00.778Z,93744.45
2018-06-08T16:33:29.577Z,93746.03
2018-06-08T16:35:58.350Z,93736.02
2018-06-08T16:38:27.156Z,93737.15
2018-06-08T16:40:55.960Z,93739.46
2018-06-08T16:43:24.732Z,93742.97
2018-06-08T16:45:53.507Z,93748.98
2018-06-08T16:48:22.319Z,93747.00
2018-06-08T16:50:51.108Z,93745.92
2018-06-08T16:53:20.000Z,93741.28
2018-06-08T16:55:48.756Z,93739.84
2018-06-08T16:58:17.521Z,93737.63
2018-06-08T17:00:46.287Z,93740.00
2018-06-08T17:03:15.052Z,93741.86
2018-06-08T17:05:43.838Z,93730.85
2018-06-08T17:08:12.580Z,93731.96
2018-06-08T17:10:41.364Z,93725.25
2018-06-08T17:13:10.145Z,93725.80
2018-06-08T17:15:38.988Z,93722.97
2018-06-08T17:18:07.882Z,93722.06
2018-06-08T17:20:36.641Z,93718.52
2018-06-08T17:23:05.466Z,93717.06
2018-06-08T17:25:34.268Z,93714.97
2018-06-08T17:28:03.064Z,93715.44
2018-06-08T17:30:31.827Z,93714.63
2018-06-08T17:33:00.582Z,93716.22
2018-06-08T17:35:29.371Z,93710.67
2018-06-08T17:37:58.196Z,93705.97
2018-06-08T17:40:26.961Z,93701.34
2018-06-08T17:42:55.701Z,93697.87
2018-06-08T17:45:24.681Z,93691.14
2018-06-08T17:47:53.443Z,93691.53
2018-06-08T17:50:22.512Z,93681.56
2018-06-08T17:52:51.324Z,93678.62
2018-06-08T17:55:20.139Z,93671.34
2018-06-08T17:57:48.917Z,93669.55
2018-06-08T18:00:17.731Z,93664.70
2018-06-08T18:02:46.526Z,93656.08
2018-06-08T18:05:15.383Z,93662.70
2018-06-08T18:07:44.181Z,93655.15
2018-06-08T18:10:12.974Z,93652.59
2018-06-08T18:12:41.792Z,93648.37
2018-06-08T18:15:10.697Z,93645.91
2018-06-08T18:17:39.588Z,93651.54
2018-06-08T18:20:08.398Z,93652.27
2018-06-08T18:22:37.292Z,93655.44
2018-06-08T18:25:06.212Z,93657.05
2018-06-08T18:27:35.018Z,93654.07
2018-06-08T18:30:03.929Z,93661.56
2018-06-08T18:32:32.733Z,93667.44
2018-06-08T18:35:01.529Z,93665.63
2018-06-08T18:37:30.313Z,93661.98
2018-06-08T18:39:59.153Z,93655.58
2018-06-08T18:42:27.959Z,93651.80
2018-06-08T18:44:56.791Z,93651.59
2018-06-08T18:47:25.569Z,93649.15
2018-06-08T18:49:54.399Z,93654.42
2018-06-08T18:52:23.163Z,93650.86
2018-06-08T18:54:52.025Z,93645.62
2018-06-08T18:57:20.827Z,93645.61
2018-06-08T18:59:50.520Z,93643.52
2018-06-08T19:02:19.309Z,93650.39
2018-06-08T19:04:48.107Z,93644.16
2018-06-08T19:07:17.014Z,93642.47
2018-06-08T19:09:45.838Z,93643.87
2018-06-08T19:12:14.593Z,93647.02
2018-06-08T19:14:43.424Z,93647.42
2018-06-08T19:17:12.253Z,93646.28
2018-06-08T19:19:41.056Z,93645.22
2018-06-08T19:22:09.864Z,93648.58
2018-06-08T19:24:38.670Z,93645.73
2018-06-08T19:27:07.532Z,93648.58
2018-06-08T19:29:36.442Z,93657.20
2018-06-08T19:32:05.232Z,93655.34
2018-06-08T19:34:34.123Z,93657.42
2018-06-08T19:37:02.985Z,93653.72
2018-06-08T19:39:32.408Z,93656.19
2018-06-08T19:42:01.204Z,93666.04
2018-06-08T19:44:30.061Z,93678.41
2018-06-08T19:46:58.891Z,93688.66
2018-06-08T19:49:27.689Z,93699.52
2018-06-08T19:51:56.592Z,93703.96
2018-06-08T19:54:25.382Z,93703.88
2018-06-08T19:56:54.165Z,93703.16
2018-06-08T19:59:22.947Z,93702.01
2018-06-08T20:01:51.752Z,93704.78
2018-06-08T20:04:20.502Z,93709.30
2018-06-08T20:06:49.338Z,93716.73
2018-06-08T20:09:18.106Z,93717.22
2018-06-08T20:11:46.873Z,93711.92
2018-06-08T20:14:15.818Z,93719.37
2018-06-08T20:16:44.709Z,93715.02
2018-06-08T20:19:13.509Z,93712.70
2018-06-08T20:21:42.315Z,93706.59
2018-06-08T20:24:11.126Z,93718.20
2018-06-08T20:26:40.062Z,93727.75
2018-06-08T20:29:08.880Z,93721.36
2018-06-08T20:31:37.690Z,93721.59
2018-06-08T20:34:06.521Z,93722.55
2018-06-08T20:36:35.417Z,93713.47
2018-06-08T20:39:04.706Z,93714.26
2018-06-08T20:41:33.513Z,93710.23
2018-06-08T20:44:02.292Z,93702.47
2018-06-08T20:46:31.112Z,93704.70
2018-06-08T20:48:59.889Z,93705.82
2018-06-08T20:51:28.684Z,93702.95
2018-06-08T20:53:57.448Z,93698.15
2018-06-08T20:56:26.224Z,93703.34
2018-06-08T20:58:55.091Z,93702.58
2018-06-08T21:01:23.867Z,93712.31
2018-06-08T21:03:52.640Z,93706.92
2018-06-08T21:06:21.404Z,93698.47
2018-06-08T21:08:50.180Z,93694.04
2018-06-08T21:11:18.933Z,93703.75
2018-06-08T21:13:47.797Z,93703.04
2018-06-08T21:16:16.592Z,93701.91
2018-06-08T21:18:45.378Z,93699.89
2018-06-08T21:21:14.224Z,93696.92
2018-06-08T21:23:43.047Z,93692.50
2018-06-08T21:26:11.843Z,93691.31
2018-06-08T21:28:40.617Z,93687.22
2018-06-08T21:31:09.515Z,93680.14
2018-06-08T21:33:38.279Z,93673.16
2018-06-08T21:36:07.066Z,93672.66
2018-06-08T21:38:35.885Z,93668.39
2018-06-08T21:41:04.690Z,93661.17
2018-06-08T21:43:33.504Z,93652.60
2018-06-08T21:46:02.258Z,93654.16
2018-06-08T21:48:31.109Z,93652.99
2018-06-08T21:50:59.923Z,93662.94
2018-06-08T21:53:28.723Z,93656.72
2018-06-08T21:55:57.486Z,93660.46
2018-06-08T21:58:26.221Z,93657.50
2018-06-08T22:00:55.045Z,93666.72
2018-06-08T22:03:23.891Z,93668.55
2018-06-08T22:05:52.754Z,93664.86
2018-06-08T22:08:22.463Z,93665.03
2018-06-08T22:10:51.280Z,93665.41
2018-06-08T22:13:20.030Z,93665.99
2018-06-08T22:15:48.800Z,93663.08
2018-06-08T22:18:17.614Z,93659.52
2018-06-08T22:20:46.483Z,93652.69
2018-06-08T22:23:15.258Z,93650.86
2018-06-08T22:25:44.032Z,93654.37
2018-06-08T22:28:13.520Z,93647.06
2018-06-08T22:30:42.300Z,93644.06
2018-06-08T22:33:11.091Z,93640.77
2018-06-08T22:35:39.862Z,93639.33
2018-06-08T22:38:09.263Z,93635.27
2018-06-08T22:40:38.036Z,93633.98
2018-06-08T22:43:06.787Z,93629.23
2018-06-08T22:45:35.528Z,93634.03
2018-06-08T22:48:04.328Z,93633.84
2018-06-08T22:50:33.199Z,93631.53
2018-06-08T22:53:01.956Z,93630.75
2018-06-08T22:55:30.714Z,93630.16
2018-06-08T22:57:59.471Z,93627.95
2018-06-08T23:00:28.243Z,93628.87
2018-06-08T23:02:57.042Z,93623.31
2018-06-08T23:05:25.824Z,93625.19
2018-06-08T23:07:54.575Z,93630.91
2018-06-08T23:10:23.329Z,93620.58
2018-06-08T23:12:52.227Z,93628.33
2018-06-08T23:15:21.001Z,93619.08
2018-06-08T23:17:49.773Z,93612.92
2018-06-08T23:20:18.525Z,93613.64
2018-06-08T23:22:47.916Z,93611.91
2018-06-08T23:25:16.669Z,93610.95
2018-06-08T23:27:45.419Z,93605.03
2018-06-08T23:30:14.157Z,93605.67
2018-06-08T23:32:42.931Z,93605.91
2018-06-08T23:35:11.734Z,93605.22
2018-06-08T23:37:40.498Z,93598.70
2018-06-08T23:40:09.271Z,93598.74
2018-06-08T23:42:38.035Z,93600.61
2018-06-08T23:45:06.809Z,93609.50
2018-06-08T23:47:35.554Z,93605.95
2018-06-08T23:50:04.383Z,93608.08
2018-06-08T23:52:33.188Z,93605.52
2018-06-08T23:55:01.952Z,93608.14
2018-06-08T23:57:30.818Z,93610.72
2018-06-08T23:59:59.584Z,93601.30
